Weather at Brussels Airport

Public forecast

Using degrees Celsius for public forecast. Weather courtesy of forecast.io.

Current aviation weather report (METAR) for Brussels Airport

2022/11/30 11:20 (retrieved 22 minutes ago)

EBBR 301120Z VRB02KT 2200 BR BKN003 05/04 Q1025 BECMG 4000 BKN006

Aviation forecast (TAF) for Brussels Airport

2022/11/30 06:27 (retrieved 5 hours ago)

TAF TAF EBBR 300500Z 3006/0112 VRB03KT 1500 BR BKN002 PROB40 TEMPO 3006/3010 0300 FG BKN001 BECMG 3011/3013 6000 NSW BKN006 PROB30 TEMPO 3020/0110 3000 BR BKN004